sensor_id;sensor_type;location;lat;lon;timestamp;pressure;altitude;pressure_sealevel;temperature;humidity
29045;BME280;16133;49.486;12.176;2022-07-06T00:04:55;97736.84;;;12.78;87.67
29045;BME280;16133;49.486;12.176;2022-07-06T00:07:22;97732.53;;;12.77;87.59
29045;BME280;16133;49.486;12.176;2022-07-06T00:09:49;97729.13;;;12.83;86.10
29045;BME280;16133;49.486;12.176;2022-07-06T00:12:14;97737.38;;;12.88;88.53
29045;BME280;16133;49.486;12.176;2022-07-06T00:14:40;97741.06;;;12.87;88.57
29045;BME280;16133;49.486;12.176;2022-07-06T00:17:05;97724.09;;;12.74;89.52
29045;BME280;16133;49.486;12.176;2022-07-06T00:19:31;97730.69;;;12.78;90.27
29045;BME280;16133;49.486;12.176;2022-07-06T00:21:56;97725.91;;;12.73;90.36
29045;BME280;16133;49.486;12.176;2022-07-06T00:24:21;97735.13;;;12.71;89.91
29045;BME280;16133;49.486;12.176;2022-07-06T00:26:47;97740.81;;;12.68;92.50
29045;BME280;16133;49.486;12.176;2022-07-06T00:29:12;97749.06;;;12.73;90.28
29045;BME280;16133;49.486;12.176;2022-07-06T00:31:38;97750.53;;;12.75;90.05
29045;BME280;16133;49.486;12.176;2022-07-06T00:34:03;97738.69;;;12.78;88.26
29045;BME280;16133;49.486;12.176;2022-07-06T00:36:28;97728.03;;;12.78;89.64
29045;BME280;16133;49.486;12.176;2022-07-06T00:38:54;97735.47;;;12.82;88.62
29045;BME280;16133;49.486;12.176;2022-07-06T00:41:19;97743.44;;;12.97;88.50
29045;BME280;16133;49.486;12.176;2022-07-06T00:43:50;97737.28;;;12.97;88.26
29045;BME280;16133;49.486;12.176;2022-07-06T00:46:15;97724.72;;;12.90;88.24
29045;BME280;16133;49.486;12.176;2022-07-06T00:48:41;97729.84;;;12.92;89.39
29045;BME280;16133;49.486;12.176;2022-07-06T00:51:06;97747.84;;;12.90;90.09
29045;BME280;16133;49.486;12.176;2022-07-06T00:53:32;97743.34;;;12.90;89.98
29045;BME280;16133;49.486;12.176;2022-07-06T00:55:57;97749.69;;;12.89;88.81
29045;BME280;16133;49.486;12.176;2022-07-06T00:58:23;97739.78;;;12.83;89.25
29045;BME280;16133;49.486;12.176;2022-07-06T01:00:48;97732.97;;;12.81;89.88
29045;BME280;16133;49.486;12.176;2022-07-06T01:03:14;97732.63;;;12.84;89.12
29045;BME280;16133;49.486;12.176;2022-07-06T01:05:39;97724.81;;;12.82;89.07
29045;BME280;16133;49.486;12.176;2022-07-06T01:08:04;97714.88;;;12.76;90.00
29045;BME280;16133;49.486;12.176;2022-07-06T01:10:30;97723.25;;;12.73;91.17
29045;BME280;16133;49.486;12.176;2022-07-06T01:12:56;97722.63;;;12.71;90.71
29045;BME280;16133;49.486;12.176;2022-07-06T01:15:24;97726.84;;;12.66;91.32
29045;BME280;16133;49.486;12.176;2022-07-06T01:17:50;97722.44;;;12.58;92.47
29045;BME280;16133;49.486;12.176;2022-07-06T01:20:17;97720.69;;;12.51;94.80
29045;BME280;16133;49.486;12.176;2022-07-06T01:22:43;97713.63;;;12.43;94.73
29045;BME280;16133;49.486;12.176;2022-07-06T01:25:10;97715.38;;;12.36;95.66
29045;BME280;16133;49.486;12.176;2022-07-06T01:27:36;97717.97;;;12.29;96.06
29045;BME280;16133;49.486;12.176;2022-07-06T01:30:06;97718.31;;;12.26;98.32
29045;BME280;16133;49.486;12.176;2022-07-06T01:32:32;97710.88;;;12.22;96.88
29045;BME280;16133;49.486;12.176;2022-07-06T01:34:57;97716.75;;;12.17;96.68
29045;BME280;16133;49.486;12.176;2022-07-06T01:37:23;97712.97;;;12.12;98.66
29045;BME280;16133;49.486;12.176;2022-07-06T01:39:48;97717.66;;;12.10;99.02
29045;BME280;16133;49.486;12.176;2022-07-06T01:42:13;97712.72;;;12.07;98.09
29045;BME280;16133;49.486;12.176;2022-07-06T01:44:39;97707.38;;;12.07;98.87
29045;BME280;16133;49.486;12.176;2022-07-06T01:47:04;97712.13;;;12.11;99.02
29045;BME280;16133;49.486;12.176;2022-07-06T01:49:30;97714.47;;;12.14;97.69
29045;BME280;16133;49.486;12.176;2022-07-06T01:51:55;97725.94;;;12.15;97.13
29045;BME280;16133;49.486;12.176;2022-07-06T01:54:20;97727.94;;;12.13;97.35
29045;BME280;16133;49.486;12.176;2022-07-06T01:56:46;97727.31;;;12.11;98.98
29045;BME280;16133;49.486;12.176;2022-07-06T01:59:11;97723.97;;;12.09;98.20
29045;BME280;16133;49.486;12.176;2022-07-06T02:01:36;97723.16;;;12.08;98.11
29045;BME280;16133;49.486;12.176;2022-07-06T02:04:02;97714.72;;;12.05;99.78
29045;BME280;16133;49.486;12.176;2022-07-06T02:06:27;97703.06;;;11.91;100.00
29045;BME280;16133;49.486;12.176;2022-07-06T02:08:52;97716.81;;;11.94;100.00
29045;BME280;16133;49.486;12.176;2022-07-06T02:11:19;97722.13;;;11.94;100.00
29045;BME280;16133;49.486;12.176;2022-07-06T02:13:44;97725.25;;;11.98;100.00
29045;BME280;16133;49.486;12.176;2022-07-06T02:16:10;97724.97;;;11.93;100.00
29045;BME280;16133;49.486;12.176;2022-07-06T02:18:35;97723.84;;;11.87;100.00
29045;BME280;16133;49.486;12.176;2022-07-06T02:21:03;97727.69;;;11.85;100.00
29045;BME280;16133;49.486;12.176;2022-07-06T02:23:28;97733.38;;;11.82;100.00
29045;BME280;16133;49.486;12.176;2022-07-06T02:25:54;97729.78;;;11.75;100.00
29045;BME280;16133;49.486;12.176;2022-07-06T02:28:19;97732.94;;;11.70;100.00
29045;BME280;16133;49.486;12.176;2022-07-06T02:30:44;97742.09;;;11.68;100.00
29045;BME280;16133;49.486;12.176;2022-07-06T02:33:10;97740.59;;;11.65;100.00
29045;BME280;16133;49.486;12.176;2022-07-06T02:35:35;97735.66;;;11.62;100.00
29045;BME280;16133;49.486;12.176;2022-07-06T02:38:02;97738.19;;;11.56;100.00
29045;BME280;16133;49.486;12.176;2022-07-06T02:40:28;97743.22;;;11.50;100.00
29045;BME280;16133;49.486;12.176;2022-07-06T02:42:53;97741.75;;;11.48;100.00
29045;BME280;16133;49.486;12.176;2022-07-06T02:45:18;97739.81;;;11.42;100.00
29045;BME280;16133;49.486;12.176;2022-07-06T02:47:44;97749.13;;;11.38;100.00
29045;BME280;16133;49.486;12.176;2022-07-06T02:50:09;97753.16;;;11.34;100.00
29045;BME280;16133;49.486;12.176;2022-07-06T02:52:34;97740.38;;;11.29;100.00
29045;BME280;16133;49.486;12.176;2022-07-06T02:55:00;97758.94;;;11.37;100.00
29045;BME280;16133;49.486;12.176;2022-07-06T02:57:25;97755.25;;;11.38;100.00
29045;BME280;16133;49.486;12.176;2022-07-06T02:59:51;97759.41;;;11.41;100.00
29045;BME280;16133;49.486;12.176;2022-07-06T03:02:17;97757.81;;;11.55;100.00
29045;BME280;16133;49.486;12.176;2022-07-06T03:04:42;97767.00;;;11.75;100.00
29045;BME280;16133;49.486;12.176;2022-07-06T03:07:08;97766.34;;;11.95;100.00
29045;BME280;16133;49.486;12.176;2022-07-06T03:09:33;97777.78;;;12.19;100.00
29045;BME280;16133;49.486;12.176;2022-07-06T03:11:59;97780.91;;;12.37;100.00
29045;BME280;16133;49.486;12.176;2022-07-06T03:14:24;97783.28;;;12.46;100.00
29045;BME280;16133;49.486;12.176;2022-07-06T03:16:50;97778.53;;;12.57;100.00
29045;BME280;16133;49.486;12.176;2022-07-06T03:19:16;97783.59;;;12.66;100.00
29045;BME280;16133;49.486;12.176;2022-07-06T03:21:41;97763.66;;;12.62;100.00
29045;BME280;16133;49.486;12.176;2022-07-06T03:24:06;97790.94;;;12.79;100.00
29045;BME280;16133;49.486;12.176;2022-07-06T03:26:32;97796.16;;;12.87;99.73
29045;BME280;16133;49.486;12.176;2022-07-06T03:28:57;97789.63;;;12.89;99.82
29045;BME280;16133;49.486;12.176;2022-07-06T03:31:22;97798.19;;;12.85;98.71
29045;BME280;16133;49.486;12.176;2022-07-06T03:33:48;97790.00;;;12.86;99.95
29045;BME280;16133;49.486;12.176;2022-07-06T03:36:13;97796.88;;;12.81;100.00
29045;BME280;16133;49.486;12.176;2022-07-06T03:38:39;97794.44;;;12.79;99.53
29045;BME280;16133;49.486;12.176;2022-07-06T03:41:04;97795.72;;;12.83;99.15
29045;BME280;16133;49.486;12.176;2022-07-06T03:43:29;97785.22;;;12.82;99.63
29045;BME280;16133;49.486;12.176;2022-07-06T03:45:55;97792.59;;;12.80;99.31
29045;BME280;16133;49.486;12.176;2022-07-06T03:48:21;97789.09;;;12.79;99.16
29045;BME280;16133;49.486;12.176;2022-07-06T03:50:47;97802.03;;;12.82;99.18
29045;BME280;16133;49.486;12.176;2022-07-06T03:53:12;97804.25;;;12.79;98.17
29045;BME280;16133;49.486;12.176;2022-07-06T03:55:38;97797.09;;;12.79;98.81
29045;BME280;16133;49.486;12.176;2022-07-06T03:58:03;97802.22;;;12.81;98.43
29045;BME280;16133;49.486;12.176;2022-07-06T04:00:28;97805.44;;;12.91;97.25
29045;BME280;16133;49.486;12.176;2022-07-06T04:02:54;97807.53;;;12.95;95.56
29045;BME280;16133;49.486;12.176;2022-07-06T04:05:19;97805.34;;;12.99;96.21
29045;BME280;16133;49.486;12.176;2022-07-06T04:07:49;97806.44;;;13.05;94.33
29045;BME280;16133;49.486;12.176;2022-07-06T04:10:16;97802.88;;;13.12;94.35
29045;BME280;16133;49.486;12.176;2022-07-06T04:12:44;97807.28;;;13.20;94.70
29045;BME280;16133;49.486;12.176;2022-07-06T04:15:11;97802.41;;;13.23;93.83
29045;BME280;16133;49.486;12.176;2022-07-06T04:17:38;97804.88;;;13.25;95.43
29045;BME280;16133;49.486;12.176;2022-07-06T04:20:19;97801.56;;;13.23;95.48
29045;BME280;16133;49.486;12.176;2022-07-06T04:22:44;97808.94;;;13.21;95.72
29045;BME280;16133;49.486;12.176;2022-07-06T04:25:10;97811.38;;;13.22;94.76
29045;BME280;16133;49.486;12.176;2022-07-06T04:27:35;97813.88;;;13.24;95.32
29045;BME280;16133;49.486;12.176;2022-07-06T04:30:02;97817.00;;;13.27;95.73
29045;BME280;16133;49.486;12.176;2022-07-06T04:32:28;97823.44;;;13.33;93.82
29045;BME280;16133;49.486;12.176;2022-07-06T04:34:53;97830.94;;;13.44;93.94
29045;BME280;16133;49.486;12.176;2022-07-06T04:37:18;97833.56;;;13.59;92.19
29045;BME280;16133;49.486;12.176;2022-07-06T04:39:44;97830.59;;;13.68;91.69
29045;BME280;16133;49.486;12.176;2022-07-06T04:42:09;97823.31;;;13.77;90.79
29045;BME280;16133;49.486;12.176;2022-07-06T04:44:34;97829.63;;;13.91;89.96
29045;BME280;16133;49.486;12.176;2022-07-06T04:47:00;97827.06;;;14.04;89.08
29045;BME280;16133;49.486;12.176;2022-07-06T04:49:25;97831.31;;;14.19;88.09
29045;BME280;16133;49.486;12.176;2022-07-06T04:51:50;97827.84;;;14.40;86.59
29045;BME280;16133;49.486;12.176;2022-07-06T04:54:16;97827.16;;;14.59;84.76
29045;BME280;16133;49.486;12.176;2022-07-06T04:56:42;97832.28;;;14.89;83.14
29045;BME280;16133;49.486;12.176;2022-07-06T04:59:07;97832.22;;;15.10;81.82
29045;BME280;16133;49.486;12.176;2022-07-06T05:01:33;97830.91;;;15.40;81.15
29045;BME280;16133;49.486;12.176;2022-07-06T05:03:58;97831.91;;;15.87;78.87
29045;BME280;16133;49.486;12.176;2022-07-06T05:06:24;97832.81;;;16.40;75.33
29045;BME280;16133;49.486;12.176;2022-07-06T05:08:49;97843.47;;;17.12;71.82
29045;BME280;16133;49.486;12.176;2022-07-06T05:11:15;97832.41;;;17.91;67.79
29045;BME280;16133;49.486;12.176;2022-07-06T05:13:40;97834.97;;;18.67;64.28
29045;BME280;16133;49.486;12.176;2022-07-06T05:16:06;97840.31;;;19.34;60.38
29045;BME280;16133;49.486;12.176;2022-07-06T05:18:31;97849.97;;;19.60;58.87
29045;BME280;16133;49.486;12.176;2022-07-06T05:20:56;97852.69;;;19.42;58.38
29045;BME280;16133;49.486;12.176;2022-07-06T05:23:22;97857.78;;;19.25;58.55
29045;BME280;16133;49.486;12.176;2022-07-06T05:25:47;97854.19;;;19.13;58.88
29045;BME280;16133;49.486;12.176;2022-07-06T05:28:13;97862.13;;;19.08;58.86
29045;BME280;16133;49.486;12.176;2022-07-06T05:30:38;97853.22;;;18.89;59.87
29045;BME280;16133;49.486;12.176;2022-07-06T05:33:03;97864.00;;;18.83;58.95
29045;BME280;16133;49.486;12.176;2022-07-06T05:35:29;97868.78;;;18.56;60.42
29045;BME280;16133;49.486;12.176;2022-07-06T05:37:54;97859.63;;;18.32;60.99
29045;BME280;16133;49.486;12.176;2022-07-06T05:40:19;97863.63;;;18.23;61.71
29045;BME280;16133;49.486;12.176;2022-07-06T05:42:45;97862.28;;;18.07;61.24
29045;BME280;16133;49.486;12.176;2022-07-06T05:45:10;97871.16;;;18.08;61.12
29045;BME280;16133;49.486;12.176;2022-07-06T05:47:36;97865.84;;;18.01;62.68
29045;BME280;16133;49.486;12.176;2022-07-06T05:50:19;97867.38;;;18.53;61.30
29045;BME280;16133;49.486;12.176;2022-07-06T05:52:57;97871.97;;;19.14;59.55
29045;BME280;16133;49.486;12.176;2022-07-06T05:55:23;97855.69;;;19.82;56.56
29045;BME280;16133;49.486;12.176;2022-07-06T05:57:49;97866.44;;;20.30;56.14
29045;BME280;16133;49.486;12.176;2022-07-06T06:00:15;97871.66;;;20.55;54.94
29045;BME280;16133;49.486;12.176;2022-07-06T06:02:42;97870.31;;;20.98;53.74
29045;BME280;16133;49.486;12.176;2022-07-06T06:05:09;97871.13;;;21.45;51.72
29045;BME280;16133;49.486;12.176;2022-07-06T06:07:35;97867.16;;;21.88;51.54
29045;BME280;16133;49.486;12.176;2022-07-06T06:10:03;97871.34;;;22.52;49.92
29045;BME280;16133;49.486;12.176;2022-07-06T06:12:29;97868.25;;;23.10;48.13
29045;BME280;16133;49.486;12.176;2022-07-06T06:14:54;97874.22;;;23.67;46.52
29045;BME280;16133;49.486;12.176;2022-07-06T06:17:20;97874.13;;;24.06;45.86
29045;BME280;16133;49.486;12.176;2022-07-06T06:19:45;97865.91;;;24.22;44.58
29045;BME280;16133;49.486;12.176;2022-07-06T06:22:10;97873.72;;;24.41;44.00
29045;BME280;16133;49.486;12.176;2022-07-06T06:24:36;97872.47;;;24.26;45.02
29045;BME280;16133;49.486;12.176;2022-07-06T06:27:01;97879.91;;;24.63;44.16
29045;BME280;16133;49.486;12.176;2022-07-06T06:29:27;97878.09;;;24.47;43.79
29045;BME280;16133;49.486;12.176;2022-07-06T06:31:52;97877.34;;;24.24;43.72
29045;BME280;16133;49.486;12.176;2022-07-06T06:34:21;97866.31;;;24.09;44.72
29045;BME280;16133;49.486;12.176;2022-07-06T06:36:46;97868.22;;;23.87;45.20
29045;BME280;16133;49.486;12.176;2022-07-06T06:39:12;97866.34;;;23.66;45.92
29045;BME280;16133;49.486;12.176;2022-07-06T06:41:38;97861.50;;;23.29;45.94
29045;BME280;16133;49.486;12.176;2022-07-06T06:44:05;97870.69;;;22.62;47.52
29045;BME280;16133;49.486;12.176;2022-07-06T06:46:31;97870.03;;;22.38;48.04
29045;BME280;16133;49.486;12.176;2022-07-06T06:48:56;97869.69;;;22.34;49.26
29045;BME280;16133;49.486;12.176;2022-07-06T06:51:22;97867.00;;;22.34;49.09
29045;BME280;16133;49.486;12.176;2022-07-06T06:53:47;97857.56;;;22.37;48.33
29045;BME280;16133;49.486;12.176;2022-07-06T06:56:13;97864.34;;;22.23;48.96
29045;BME280;16133;49.486;12.176;2022-07-06T06:58:38;97861.56;;;22.34;48.42
29045;BME280;16133;49.486;12.176;2022-07-06T07:01:04;97863.91;;;22.14;48.25
29045;BME280;16133;49.486;12.176;2022-07-06T07:03:30;97867.53;;;21.80;49.11
29045;BME280;16133;49.486;12.176;2022-07-06T07:05:56;97869.84;;;21.88;49.51
29045;BME280;16133;49.486;12.176;2022-07-06T07:08:21;97872.97;;;22.36;48.70
29045;BME280;16133;49.486;12.176;2022-07-06T07:10:47;97866.19;;;22.67;47.75
29045;BME280;16133;49.486;12.176;2022-07-06T07:13:12;97867.47;;;22.76;47.34
29045;BME280;16133;49.486;12.176;2022-07-06T07:15:38;97869.25;;;22.71;46.51
29045;BME280;16133;49.486;12.176;2022-07-06T07:18:03;97865.16;;;22.68;46.16
29045;BME280;16133;49.486;12.176;2022-07-06T07:20:29;97868.97;;;22.56;45.94
29045;BME280;16133;49.486;12.176;2022-07-06T07:22:55;97877.50;;;22.19;45.53
29045;BME280;16133;49.486;12.176;2022-07-06T07:25:21;97866.56;;;21.86;46.86
29045;BME280;16133;49.486;12.176;2022-07-06T07:27:46;97864.81;;;21.80;47.19
29045;BME280;16133;49.486;12.176;2022-07-06T07:30:11;97866.84;;;21.73;46.88
29045;BME280;16133;49.486;12.176;2022-07-06T07:35:59;97865.38;;;21.42;47.72
29045;BME280;16133;49.486;12.176;2022-07-06T07:38:24;97865.38;;;21.54;47.57
29045;BME280;16133;49.486;12.176;2022-07-06T07:40:50;97860.53;;;21.56;48.09
29045;BME280;16133;49.486;12.176;2022-07-06T07:43:15;97864.28;;;21.55;48.06
29045;BME280;16133;49.486;12.176;2022-07-06T07:45:41;97860.16;;;21.64;47.86
29045;BME280;16133;49.486;12.176;2022-07-06T07:48:06;97856.72;;;21.80;46.88
29045;BME280;16133;49.486;12.176;2022-07-06T07:50:31;97868.09;;;21.82;46.55
29045;BME280;16133;49.486;12.176;2022-07-06T07:52:57;97861.03;;;21.92;46.81
29045;BME280;16133;49.486;12.176;2022-07-06T07:55:22;97862.63;;;22.05;46.17
29045;BME280;16133;49.486;12.176;2022-07-06T07:57:48;97854.09;;;21.85;46.79
29045;BME280;16133;49.486;12.176;2022-07-06T08:00:13;97850.00;;;21.94;46.02
29045;BME280;16133;49.486;12.176;2022-07-06T08:02:39;97852.69;;;22.22;46.20
29045;BME280;16133;49.486;12.176;2022-07-06T08:05:05;97857.00;;;22.07;46.41
29045;BME280;16133;49.486;12.176;2022-07-06T08:07:34;97852.44;;;22.07;45.36
29045;BME280;16133;49.486;12.176;2022-07-06T08:10:08;97859.59;;;22.02;44.93
29045;BME280;16133;49.486;12.176;2022-07-06T08:12:36;97861.03;;;21.92;45.91
29045;BME280;16133;49.486;12.176;2022-07-06T08:15:03;97849.84;;;21.89;45.68
29045;BME280;16133;49.486;12.176;2022-07-06T08:17:29;97844.22;;;21.90;45.81
29045;BME280;16133;49.486;12.176;2022-07-06T08:19:54;97847.03;;;22.07;44.62
29045;BME280;16133;49.486;12.176;2022-07-06T08:22:20;97852.69;;;21.94;45.91
29045;BME280;16133;49.486;12.176;2022-07-06T08:24:45;97852.53;;;22.01;46.17
29045;BME280;16133;49.486;12.176;2022-07-06T08:27:11;97855.84;;;22.03;45.31
29045;BME280;16133;49.486;12.176;2022-07-06T08:29:36;97853.25;;;22.24;44.73
29045;BME280;16133;49.486;12.176;2022-07-06T08:32:02;97848.25;;;22.16;46.35
29045;BME280;16133;49.486;12.176;2022-07-06T08:34:27;97846.91;;;22.30;46.67
29045;BME280;16133;49.486;12.176;2022-07-06T08:36:53;97849.03;;;22.45;45.91
29045;BME280;16133;49.486;12.176;2022-07-06T08:39:18;97842.56;;;22.63;44.76
29045;BME280;16133;49.486;12.176;2022-07-06T08:41:44;97845.00;;;22.76;45.24
29045;BME280;16133;49.486;12.176;2022-07-06T08:44:13;97853.03;;;22.71;42.60
29045;BME280;16133;49.486;12.176;2022-07-06T08:46:39;97840.09;;;22.73;42.30
29045;BME280;16133;49.486;12.176;2022-07-06T08:49:07;97845.19;;;22.58;42.39
29045;BME280;16133;49.486;12.176;2022-07-06T08:51:35;97849.88;;;22.46;42.76
29045;BME280;16133;49.486;12.176;2022-07-06T08:54:02;97849.47;;;22.54;42.81
29045;BME280;16133;49.486;12.176;2022-07-06T08:56:27;97846.16;;;22.80;42.10
29045;BME280;16133;49.486;12.176;2022-07-06T08:58:54;97851.16;;;23.26;41.61
29045;BME280;16133;49.486;12.176;2022-07-06T09:01:19;97853.38;;;23.68;40.26
29045;BME280;16133;49.486;12.176;2022-07-06T09:03:46;97852.75;;;24.09;40.08
29045;BME280;16133;49.486;12.176;2022-07-06T09:06:16;97851.88;;;24.25;40.43
29045;BME280;16133;49.486;12.176;2022-07-06T09:08:45;97845.34;;;24.26;39.76
29045;BME280;16133;49.486;12.176;2022-07-06T09:11:11;97855.28;;;24.43;39.72
29045;BME280;16133;49.486;12.176;2022-07-06T09:13:37;97851.69;;;24.64;39.98
29045;BME280;16133;49.486;12.176;2022-07-06T09:16:13;97859.78;;;24.59;39.59
29045;BME280;16133;49.486;12.176;2022-07-06T09:18:39;97852.16;;;24.56;39.52
29045;BME280;16133;49.486;12.176;2022-07-06T09:21:06;97847.34;;;24.95;38.90
29045;BME280;16133;49.486;12.176;2022-07-06T09:23:32;97851.34;;;25.24;38.28
29045;BME280;16133;49.486;12.176;2022-07-06T09:25:57;97850.34;;;25.40;37.51
29045;BME280;16133;49.486;12.176;2022-07-06T09:28:23;97848.28;;;25.52;37.47
29045;BME280;16133;49.486;12.176;2022-07-06T09:30:48;97854.56;;;25.63;37.59
29045;BME280;16133;49.486;12.176;2022-07-06T09:33:17;97850.31;;;25.87;37.81
29045;BME280;16133;49.486;12.176;2022-07-06T09:35:42;97845.72;;;26.03;37.00
29045;BME280;16133;49.486;12.176;2022-07-06T09:38:11;97850.13;;;26.14;37.59
29045;BME280;16133;49.486;12.176;2022-07-06T09:40:40;97853.66;;;26.09;35.19
29045;BME280;16133;49.486;12.176;2022-07-06T09:45:38;97855.84;;;25.08;36.59
29045;BME280;16133;49.486;12.176;2022-07-06T09:48:06;97852.31;;;25.08;35.63
29045;BME280;16133;49.486;12.176;2022-07-06T09:50:38;97854.16;;;24.97;37.05
29045;BME280;16133;49.486;12.176;2022-07-06T09:53:04;97853.66;;;25.05;37.40
29045;BME280;16133;49.486;12.176;2022-07-06T09:55:29;97855.31;;;25.06;36.98
29045;BME280;16133;49.486;12.176;2022-07-06T09:57:55;97849.41;;;25.19;37.40
29045;BME280;16133;49.486;12.176;2022-07-06T10:00:20;97844.34;;;25.38;37.20
29045;BME280;16133;49.486;12.176;2022-07-06T10:02:46;97841.53;;;25.70;36.56
29045;BME280;16133;49.486;12.176;2022-07-06T10:05:16;97838.28;;;25.73;34.99
29045;BME280;16133;49.486;12.176;2022-07-06T10:07:45;97844.88;;;25.92;35.12
29045;BME280;16133;49.486;12.176;2022-07-06T10:10:10;97844.13;;;26.02;35.12
29045;BME280;16133;49.486;12.176;2022-07-06T10:12:37;97843.81;;;25.93;35.01
29045;BME280;16133;49.486;12.176;2022-07-06T10:15:04;97839.94;;;25.74;34.55
29045;BME280;16133;49.486;12.176;2022-07-06T10:17:30;97839.91;;;25.64;35.43
29045;BME280;16133;49.486;12.176;2022-07-06T10:19:56;97833.88;;;25.52;34.85
29045;BME280;16133;49.486;12.176;2022-07-06T10:22:22;97846.41;;;25.16;35.33
29045;BME280;16133;49.486;12.176;2022-07-06T10:24:48;97848.66;;;24.92;35.94
29045;BME280;16133;49.486;12.176;2022-07-06T10:27:14;97844.44;;;24.74;36.44
29045;BME280;16133;49.486;12.176;2022-07-06T10:29:40;97851.00;;;24.79;36.88
29045;BME280;16133;49.486;12.176;2022-07-06T10:32:06;97841.84;;;24.58;36.43
29045;BME280;16133;49.486;12.176;2022-07-06T10:34:32;97842.59;;;24.48;37.06
29045;BME280;16133;49.486;12.176;2022-07-06T10:36:59;97841.84;;;24.58;37.61
29045;BME280;16133;49.486;12.176;2022-07-06T10:39:36;97838.13;;;24.64;37.76
29045;BME280;16133;49.486;12.176;2022-07-06T10:42:42;97827.91;;;24.76;36.27
29045;BME280;16133;49.486;12.176;2022-07-06T10:45:10;97843.81;;;24.94;35.63
29045;BME280;16133;49.486;12.176;2022-07-06T10:47:36;97835.25;;;24.81;35.71
29045;BME280;16133;49.486;12.176;2022-07-06T10:50:03;97845.66;;;24.57;36.29
29045;BME280;16133;49.486;12.176;2022-07-06T10:52:48;97841.78;;;24.48;36.78
29045;BME280;16133;49.486;12.176;2022-07-06T10:55:37;97840.19;;;24.52;36.10
29045;BME280;16133;49.486;12.176;2022-07-06T10:58:05;97848.97;;;24.64;35.30
29045;BME280;16133;49.486;12.176;2022-07-06T11:00:50;97843.66;;;24.79;34.53
29045;BME280;16133;49.486;12.176;2022-07-06T11:06:05;97821.78;;;25.33;35.03
29045;BME280;16133;49.486;12.176;2022-07-06T11:11:17;97847.44;;;26.19;33.30
29045;BME280;16133;49.486;12.176;2022-07-06T11:16:17;97839.44;;;25.87;32.92
29045;BME280;16133;49.486;12.176;2022-07-06T11:18:48;97831.19;;;25.62;33.79
29045;BME280;16133;49.486;12.176;2022-07-06T11:21:22;97829.44;;;25.41;35.09
29045;BME280;16133;49.486;12.176;2022-07-06T11:23:49;97833.47;;;25.33;34.47
29045;BME280;16133;49.486;12.176;2022-07-06T11:26:16;97841.34;;;25.35;34.26
29045;BME280;16133;49.486;12.176;2022-07-06T11:28:41;97834.53;;;25.32;33.93
29045;BME280;16133;49.486;12.176;2022-07-06T11:31:07;97831.88;;;25.42;34.32
29045;BME280;16133;49.486;12.176;2022-07-06T11:33:33;97818.75;;;25.81;34.46
29045;BME280;16133;49.486;12.176;2022-07-06T11:36:16;97821.78;;;26.00;32.23
29045;BME280;16133;49.486;12.176;2022-07-06T11:38:42;97821.53;;;26.01;32.59
29045;BME280;16133;49.486;12.176;2022-07-06T11:41:08;97833.97;;;25.77;32.65
29045;BME280;16133;49.486;12.176;2022-07-06T11:43:34;97825.09;;;25.45;32.62
29045;BME280;16133;49.486;12.176;2022-07-06T11:45:59;97825.03;;;25.30;33.82
29045;BME280;16133;49.486;12.176;2022-07-06T11:48:25;97817.47;;;25.37;33.58
29045;BME280;16133;49.486;12.176;2022-07-06T11:51:01;97828.78;;;25.23;33.85
29045;BME280;16133;49.486;12.176;2022-07-06T11:53:27;97820.84;;;25.12;33.39
29045;BME280;16133;49.486;12.176;2022-07-06T11:55:53;97822.56;;;24.86;33.68
29045;BME280;16133;49.486;12.176;2022-07-06T11:58:22;97823.31;;;24.82;33.50
29045;BME280;16133;49.486;12.176;2022-07-06T12:01:07;97825.69;;;24.68;33.73
29045;BME280;16133;49.486;12.176;2022-07-06T12:03:34;97818.38;;;24.73;33.47
29045;BME280;16133;49.486;12.176;2022-07-06T12:06:13;97818.03;;;24.65;34.33
29045;BME280;16133;49.486;12.176;2022-07-06T12:08:46;97819.63;;;24.61;33.94
29045;BME280;16133;49.486;12.176;2022-07-06T12:11:16;97822.84;;;24.53;34.60
29045;BME280;16133;49.486;12.176;2022-07-06T12:13:42;97819.47;;;24.41;34.80
29045;BME280;16133;49.486;12.176;2022-07-06T12:16:09;97820.47;;;24.35;34.92
29045;BME280;16133;49.486;12.176;2022-07-06T12:18:36;97820.44;;;24.61;33.83
29045;BME280;16133;49.486;12.176;2022-07-06T12:21:02;97809.16;;;24.74;33.91
29045;BME280;16133;49.486;12.176;2022-07-06T12:23:41;97799.84;;;24.97;33.88
29045;BME280;16133;49.486;12.176;2022-07-06T12:26:07;97810.34;;;25.26;32.35
29045;BME280;16133;49.486;12.176;2022-07-06T12:28:33;97809.31;;;25.42;32.66
29045;BME280;16133;49.486;12.176;2022-07-06T12:30:58;97799.91;;;25.54;30.78
29045;BME280;16133;49.486;12.176;2022-07-06T12:33:23;97800.38;;;25.46;30.79
29045;BME280;16133;49.486;12.176;2022-07-06T12:35:49;97798.94;;;25.34;32.08
29045;BME280;16133;49.486;12.176;2022-07-06T12:38:25;97804.31;;;25.18;32.07
29045;BME280;16133;49.486;12.176;2022-07-06T12:40:50;97798.94;;;25.29;31.84
29045;BME280;16133;49.486;12.176;2022-07-06T12:46:27;97806.72;;;25.15;33.08
29045;BME280;16133;49.486;12.176;2022-07-06T12:48:54;97791.88;;;25.28;33.10
29045;BME280;16133;49.486;12.176;2022-07-06T12:51:20;97791.91;;;25.38;33.00
29045;BME280;16133;49.486;12.176;2022-07-06T12:53:45;97785.00;;;25.67;31.83
29045;BME280;16133;49.486;12.176;2022-07-06T12:56:12;97793.22;;;25.87;31.10
29045;BME280;16133;49.486;12.176;2022-07-06T12:58:38;97788.16;;;26.21;31.55
29045;BME280;16133;49.486;12.176;2022-07-06T13:01:03;97783.53;;;26.42;30.72
29045;BME280;16133;49.486;12.176;2022-07-06T13:03:38;97773.72;;;26.31;29.97
29045;BME280;16133;49.486;12.176;2022-07-06T13:06:04;97773.19;;;26.24;30.44